createdAt,value
2023-02-22T00:01:19.305Z,100.00
2023-02-22T00:03:50.010Z,100.00
2023-02-22T00:06:18.940Z,100.00
2023-02-22T00:08:47.608Z,100.00
2023-02-22T00:11:14.892Z,100.00
2023-02-22T00:13:45.144Z,100.00
2023-02-22T00:16:17.834Z,100.00
2023-02-22T00:18:44.938Z,100.00
2023-02-22T00:21:13.802Z,100.00
2023-02-22T00:23:46.411Z,100.00
2023-02-22T00:26:18.106Z,100.00
2023-02-22T00:28:50.566Z,100.00
2023-02-22T00:31:17.770Z,100.00
2023-02-22T00:33:44.679Z,100.00
2023-02-22T00:36:13.082Z,100.00
2023-02-22T00:38:41.079Z,100.00
2023-02-22T00:41:07.685Z,100.00
2023-02-22T00:43:34.769Z,100.00
2023-02-22T00:46:01.339Z,100.00
2023-02-22T00:48:28.397Z,100.00
2023-02-22T00:50:57.724Z,100.00
2023-02-22T00:53:25.557Z,100.00
2023-02-22T00:55:53.500Z,100.00
2023-02-22T00:58:20.864Z,100.00
2023-02-22T01:00:47.431Z,100.00
2023-02-22T01:03:17.631Z,100.00
2023-02-22T01:05:44.495Z,100.00
2023-02-22T01:08:13.312Z,100.00
2023-02-22T01:10:40.032Z,100.00
2023-02-22T01:13:12.039Z,100.00
2023-02-22T01:15:41.398Z,100.00
2023-02-22T01:18:08.475Z,100.00
2023-02-22T01:20:36.507Z,100.00
2023-02-22T01:23:06.473Z,100.00
2023-02-22T01:25:33.703Z,100.00
2023-02-22T01:28:01.570Z,100.00
2023-02-22T01:30:31.050Z,100.00
2023-02-22T01:32:58.467Z,100.00
2023-02-22T01:35:28.980Z,100.00
2023-02-22T01:37:56.232Z,100.00
2023-02-22T01:40:26.505Z,100.00
2023-02-22T01:42:55.166Z,100.00
2023-02-22T01:45:30.881Z,100.00
2023-02-22T01:48:00.152Z,100.00
2023-02-22T01:50:27.978Z,100.00
2023-02-22T01:52:54.639Z,100.00
2023-02-22T01:55:21.170Z,100.00
2023-02-22T01:57:48.742Z,100.00
2023-02-22T02:00:21.099Z,100.00
2023-02-22T02:03:08.252Z,100.00
2023-02-22T02:05:36.159Z,100.00
2023-02-22T02:08:14.445Z,100.00
2023-02-22T02:10:43.795Z,100.00
2023-02-22T02:13:10.443Z,100.00
2023-02-22T02:15:37.177Z,100.00
2023-02-22T02:18:07.609Z,100.00
2023-02-22T02:20:52.787Z,100.00
2023-02-22T02:23:50.136Z,100.00
2023-02-22T02:26:58.366Z,100.00
2023-02-22T02:29:24.667Z,100.00
2023-02-22T02:32:32.099Z,100.00
2023-02-22T02:35:11.349Z,100.00
2023-02-22T02:38:06.256Z,100.00
2023-02-22T02:40:55.566Z,100.00
2023-02-22T02:43:55.196Z,100.00
2023-02-22T02:46:45.509Z,100.00
2023-02-22T02:49:16.925Z,100.00
2023-02-22T02:51:48.518Z,100.00
2023-02-22T02:54:15.916Z,100.00
2023-02-22T02:56:45.559Z,100.00
2023-02-22T02:59:37.238Z,100.00
2023-02-22T03:02:52.634Z,100.00
2023-02-22T03:05:33.925Z,100.00
2023-02-22T03:08:38.646Z,100.00
2023-02-22T03:11:21.823Z,100.00
2023-02-22T03:13:55.536Z,100.00
2023-02-22T03:16:44.871Z,100.00
2023-02-22T03:19:26.357Z,100.00
2023-02-22T03:22:19.294Z,100.00
2023-02-22T03:24:53.105Z,100.00
2023-02-22T03:27:43.427Z,100.00
2023-02-22T03:30:18.077Z,100.00
2023-02-22T03:32:50.836Z,100.00
2023-02-22T03:35:23.636Z,100.00
2023-02-22T03:37:55.761Z,100.00
2023-02-22T03:40:31.524Z,100.00
2023-02-22T03:43:10.593Z,100.00
2023-02-22T03:45:45.166Z,100.00
2023-02-22T03:48:37.918Z,100.00
2023-02-22T03:51:06.663Z,100.00
2023-02-22T03:53:37.312Z,100.00
2023-02-22T03:56:10.317Z,100.00
2023-02-22T03:58:40.152Z,100.00
2023-02-22T04:01:06.773Z,100.00
2023-02-22T04:03:33.226Z,100.00
2023-02-22T04:05:59.670Z,100.00
2023-02-22T04:08:26.258Z,100.00
2023-02-22T04:10:52.801Z,100.00
2023-02-22T04:13:22.097Z,100.00
2023-02-22T04:15:51.680Z,100.00
2023-02-22T04:18:18.159Z,100.00
2023-02-22T04:20:46.206Z,100.00
2023-02-22T04:23:21.237Z,100.00
2023-02-22T04:25:48.502Z,100.00
2023-02-22T04:28:16.881Z,100.00
2023-02-22T04:30:49.431Z,100.00
2023-02-22T04:33:17.901Z,100.00
2023-02-22T04:35:44.391Z,100.00
2023-02-22T04:38:11.354Z,100.00
2023-02-22T04:40:39.992Z,100.00
2023-02-22T04:43:07.141Z,100.00
2023-02-22T04:45:33.757Z,100.00
2023-02-22T04:48:02.624Z,100.00
2023-02-22T04:50:29.119Z,100.00
2023-02-22T04:52:56.316Z,100.00
2023-02-22T04:55:23.256Z,100.00
2023-02-22T04:57:50.004Z,100.00
2023-02-22T05:00:18.778Z,100.00
2023-02-22T05:02:45.588Z,100.00
2023-02-22T05:05:14.610Z,100.00
2023-02-22T05:07:41.007Z,100.00
2023-02-22T05:10:08.747Z,100.00
2023-02-22T05:12:36.130Z,100.00
2023-02-22T05:15:06.995Z,100.00
2023-02-22T05:17:33.910Z,100.00
2023-02-22T05:20:00.414Z,100.00
2023-02-22T05:22:26.858Z,100.00
2023-02-22T05:24:53.511Z,100.00
2023-02-22T05:27:19.955Z,100.00
2023-02-22T05:29:46.728Z,100.00
2023-02-22T05:32:13.190Z,100.00
2023-02-22T05:34:40.337Z,100.00
2023-02-22T05:37:07.311Z,100.00
2023-02-22T05:39:33.679Z,100.00
2023-02-22T05:42:00.155Z,100.00
2023-02-22T05:44:26.562Z,100.00
2023-02-22T05:46:53.044Z,100.00
2023-02-22T05:49:19.499Z,100.00
2023-02-22T05:51:45.935Z,100.00
2023-02-22T05:54:12.374Z,100.00
2023-02-22T05:56:38.790Z,100.00
2023-02-22T05:59:05.182Z,100.00
2023-02-22T06:01:31.541Z,100.00
2023-02-22T06:03:58.026Z,100.00
2023-02-22T06:06:24.497Z,100.00
2023-02-22T06:08:50.935Z,100.00
2023-02-22T06:11:19.605Z,100.00
2023-02-22T06:13:51.640Z,100.00
2023-02-22T06:16:18.743Z,100.00
2023-02-22T06:18:45.156Z,100.00
2023-02-22T06:21:11.545Z,100.00
2023-02-22T06:23:38.074Z,100.00
2023-02-22T06:26:04.829Z,100.00
2023-02-22T06:28:31.432Z,100.00
2023-02-22T06:30:57.842Z,100.00
2023-02-22T06:33:24.286Z,100.00
2023-02-22T06:35:50.759Z,100.00
2023-02-22T06:38:25.218Z,100.00
2023-02-22T06:40:51.687Z,100.00
2023-02-22T06:43:18.140Z,100.00
2023-02-22T06:45:44.637Z,100.00
2023-02-22T06:48:11.129Z,100.00
2023-02-22T06:50:37.557Z,100.00
2023-02-22T06:53:04.840Z,100.00
2023-02-22T06:55:34.113Z,100.00
2023-02-22T06:58:01.686Z,100.00
2023-02-22T07:00:29.448Z,100.00
2023-02-22T07:02:57.786Z,100.00
2023-02-22T07:05:25.586Z,100.00
2023-02-22T07:07:54.431Z,100.00
2023-02-22T07:10:30.988Z,100.00
2023-02-22T07:12:57.453Z,100.00
2023-02-22T07:15:26.226Z,100.00
2023-02-22T07:17:53.070Z,100.00
2023-02-22T07:20:20.885Z,100.00
2023-02-22T07:22:48.301Z,100.00
2023-02-22T07:25:14.961Z,100.00
2023-02-22T07:27:42.332Z,100.00
2023-02-22T07:30:19.763Z,100.00
2023-02-22T07:32:47.165Z,100.00
2023-02-22T07:35:18.422Z,100.00
2023-02-22T07:37:44.938Z,100.00
2023-02-22T07:40:12.289Z,100.00
2023-02-22T07:43:00.567Z,100.00
2023-02-22T07:45:35.372Z,100.00
2023-02-22T07:48:03.893Z,100.00
2023-02-22T07:50:32.157Z,100.00
2023-02-22T07:53:00.544Z,100.00
2023-02-22T07:55:28.909Z,100.00
2023-02-22T07:57:58.166Z,100.00
2023-02-22T08:00:31.850Z,100.00
2023-02-22T08:03:00.886Z,100.00
2023-02-22T08:05:28.476Z,100.00
2023-02-22T08:07:55.352Z,100.00
2023-02-22T08:10:23.899Z,100.00
2023-02-22T08:12:51.430Z,100.00
2023-02-22T08:15:22.182Z,100.00
2023-02-22T08:17:48.769Z,100.00
2023-02-22T08:20:15.356Z,100.00
2023-02-22T08:22:45.540Z,100.00
2023-02-22T08:25:13.361Z,100.00
2023-02-22T08:27:39.740Z,100.00
2023-02-22T08:30:07.555Z,100.00
2023-02-22T08:32:35.952Z,100.00
2023-02-22T08:35:03.298Z,100.00
2023-02-22T08:37:29.692Z,100.00
2023-02-22T08:39:56.042Z,100.00
2023-02-22T08:42:22.935Z,100.00
2023-02-22T08:44:49.686Z,100.00
2023-02-22T08:47:16.137Z,100.00
2023-02-22T08:49:42.502Z,100.00
2023-02-22T08:52:09.169Z,100.00
2023-02-22T08:54:35.568Z,100.00
2023-02-22T08:57:02.031Z,100.00
2023-02-22T08:59:28.538Z,100.00
2023-02-22T09:01:55.732Z,100.00
2023-02-22T09:04:22.208Z,100.00
2023-02-22T09:06:51.632Z,100.00
2023-02-22T09:09:21.067Z,100.00
2023-02-22T09:11:48.694Z,100.00
2023-02-22T09:14:16.452Z,100.00
2023-02-22T09:16:45.245Z,100.00
2023-02-22T09:19:11.826Z,100.00
2023-02-22T09:21:40.091Z,100.00
2023-02-22T09:24:08.671Z,100.00
2023-02-22T09:26:42.740Z,100.00
2023-02-22T09:29:12.112Z,100.00
2023-02-22T09:31:40.465Z,100.00
2023-02-22T09:34:13.796Z,100.00
2023-02-22T09:36:43.608Z,100.00
2023-02-22T09:39:11.230Z,100.00
2023-02-22T09:41:50.655Z,99.32
2023-02-22T09:44:35.927Z,99.28
2023-02-22T09:47:03.975Z,98.34
2023-02-22T09:49:47.212Z,97.43
2023-02-22T09:52:24.284Z,97.52
2023-02-22T09:54:57.886Z,96.86
2023-02-22T09:57:32.358Z,97.14
2023-02-22T10:00:32.351Z,96.18
2023-02-22T10:03:24.454Z,96.10
2023-02-22T10:06:10.319Z,95.56
2023-02-22T10:08:38.777Z,95.49
2023-02-22T10:11:15.931Z,95.76
2023-02-22T10:13:55.881Z,96.29
2023-02-22T10:16:38.227Z,96.22
2023-02-22T10:19:20.455Z,95.60
2023-02-22T10:22:01.178Z,94.16
2023-02-22T10:24:42.753Z,92.85
2023-02-22T10:27:37.581Z,92.29
2023-02-22T10:30:38.300Z,91.48
2023-02-22T10:33:19.992Z,91.51
2023-02-22T10:35:47.248Z,90.07
2023-02-22T10:38:20.154Z,89.21
2023-02-22T10:40:53.041Z,87.55
2023-02-22T10:43:19.829Z,86.92
2023-02-22T10:45:46.343Z,86.85
2023-02-22T10:48:18.352Z,86.67
2023-02-22T10:50:46.377Z,86.37
2023-02-22T10:53:15.319Z,86.06
2023-02-22T10:56:08.528Z,85.61
2023-02-22T10:59:05.957Z,85.22
2023-02-22T11:01:32.624Z,85.21
2023-02-22T11:04:05.517Z,85.42
2023-02-22T11:06:34.098Z,83.58
2023-02-22T11:09:29.660Z,83.73
2023-02-22T11:12:11.556Z,83.08
2023-02-22T11:14:38.985Z,83.03
2023-02-22T11:17:08.525Z,82.71
2023-02-22T11:19:38.166Z,82.61
2023-02-22T11:22:25.781Z,81.79
2023-02-22T11:24:57.955Z,80.63
2023-02-22T11:27:33.248Z,79.95
2023-02-22T11:30:29.133Z,77.19
2023-02-22T11:32:58.013Z,75.25
2023-02-22T11:35:52.557Z,73.23
2023-02-22T11:38:25.308Z,71.56
2023-02-22T11:41:15.133Z,70.28
2023-02-22T11:43:49.782Z,69.25
2023-02-22T11:46:35.186Z,68.13
2023-02-22T11:49:11.019Z,68.01
2023-02-22T11:52:03.327Z,66.75
2023-02-22T11:54:47.886Z,64.48
2023-02-22T11:57:38.968Z,64.22
2023-02-22T12:00:39.802Z,63.14
2023-02-22T12:03:28.652Z,62.48
2023-02-22T12:06:45.340Z,59.96
2023-02-22T12:09:15.599Z,61.20
2023-02-22T12:11:57.242Z,61.49
2023-02-22T12:14:44.060Z,61.45
2023-02-22T12:17:29.044Z,61.23
2023-02-22T12:20:21.928Z,60.44
2023-02-22T12:23:21.856Z,59.25
2023-02-22T12:26:04.042Z,58.33
2023-02-22T12:28:51.489Z,58.10
2023-02-22T12:31:33.692Z,58.27
2023-02-22T12:34:09.433Z,58.07
2023-02-22T12:36:47.001Z,57.12
2023-02-22T12:39:51.726Z,57.25
2023-02-22T12:42:43.149Z,56.88
2023-02-22T12:45:16.908Z,55.08
2023-02-22T12:47:53.777Z,54.55
2023-02-22T12:50:23.454Z,53.34
2023-02-22T12:52:57.954Z,53.75
2023-02-22T12:56:15.872Z,54.24
2023-02-22T12:59:08.007Z,54.75
2023-02-22T13:01:45.919Z,53.48
2023-02-22T13:04:20.493Z,52.96
2023-02-22T13:07:18.485Z,54.04
2023-02-22T13:10:06.540Z,53.68
2023-02-22T13:12:53.332Z,52.77
2023-02-22T13:15:45.730Z,51.53
2023-02-22T13:18:27.192Z,51.15
2023-02-22T13:21:02.875Z,49.96
2023-02-22T13:23:46.087Z,49.01
2023-02-22T13:26:25.009Z,49.63
2023-02-22T13:29:09.032Z,49.84
2023-02-22T13:31:44.043Z,49.27
2023-02-22T13:34:27.392Z,48.81
2023-02-22T13:37:00.054Z,49.19
2023-02-22T13:39:54.580Z,47.60
2023-02-22T13:42:26.765Z,46.90
2023-02-22T13:45:31.180Z,45.63
2023-02-22T13:48:27.863Z,45.41
2023-02-22T13:51:04.486Z,43.50
2023-02-22T13:53:50.289Z,44.29
2023-02-22T13:56:19.754Z,44.15
2023-02-22T13:58:59.051Z,45.25
2023-02-22T14:01:46.691Z,44.00
2023-02-22T14:04:28.285Z,45.52
2023-02-22T14:07:00.380Z,46.04
2023-02-22T14:09:46.800Z,45.70
2023-02-22T14:12:34.505Z,46.49
2023-02-22T14:15:18.713Z,47.99
2023-02-22T14:18:03.984Z,47.39
2023-02-22T14:20:36.449Z,47.16
2023-02-22T14:23:44.813Z,48.28
2023-02-22T14:26:26.856Z,49.03
2023-02-22T14:29:05.308Z,49.72
2023-02-22T14:31:37.239Z,49.57
2023-02-22T14:34:08.588Z,50.43
2023-02-22T14:36:38.735Z,50.52
2023-02-22T14:39:17.660Z,51.49
2023-02-22T14:41:54.604Z,51.74
2023-02-22T14:44:27.532Z,52.23
2023-02-22T14:47:02.105Z,53.09
2023-02-22T14:49:31.853Z,54.07
2023-02-22T14:52:03.982Z,54.50
2023-02-22T14:55:04.257Z,55.38
2023-02-22T14:57:42.101Z,56.95
2023-02-22T15:00:32.763Z,56.33
2023-02-22T15:03:00.322Z,56.41
2023-02-22T15:05:30.293Z,56.06
2023-02-22T15:08:00.492Z,56.54
2023-02-22T15:10:48.635Z,57.93
2023-02-22T15:13:23.831Z,56.95
2023-02-22T15:16:01.743Z,57.29
2023-02-22T15:18:52.156Z,58.08
2023-02-22T15:21:25.522Z,58.22
2023-02-22T15:23:56.506Z,58.65
2023-02-22T15:26:25.868Z,59.02
2023-02-22T15:28:59.801Z,59.38
2023-02-22T15:31:35.102Z,59.19
2023-02-22T15:34:24.535Z,60.00
2023-02-22T15:36:54.471Z,60.29
2023-02-22T15:39:34.318Z,60.91
2023-02-22T15:42:07.789Z,62.04
2023-02-22T15:44:36.595Z,62.14
2023-02-22T15:47:04.253Z,62.49
2023-02-22T15:49:36.802Z,62.88
2023-02-22T15:52:31.794Z,63.81
2023-02-22T15:54:58.291Z,63.85
2023-02-22T15:57:29.649Z,64.70
2023-02-22T15:59:58.018Z,65.20
2023-02-22T16:02:38.954Z,65.27
2023-02-22T16:05:12.849Z,65.84
2023-02-22T16:07:46.274Z,66.63
2023-02-22T16:10:30.284Z,67.47
2023-02-22T16:13:31.131Z,67.69
2023-02-22T16:16:04.111Z,68.46
2023-02-22T16:18:34.404Z,68.69
2023-02-22T16:21:05.508Z,69.26
2023-02-22T16:23:42.242Z,69.02
2023-02-22T16:26:27.234Z,68.90
2023-02-22T16:28:56.630Z,69.45
2023-02-22T16:31:35.630Z,69.91
2023-02-22T16:34:04.698Z,70.24
2023-02-22T16:36:46.854Z,70.76
2023-02-22T16:39:30.079Z,70.97
2023-02-22T16:42:01.558Z,71.85
2023-02-22T16:44:28.917Z,72.11
2023-02-22T16:46:58.131Z,72.87
2023-02-22T16:49:26.580Z,73.42
2023-02-22T16:51:55.912Z,73.59
2023-02-22T16:54:34.330Z,73.83
2023-02-22T16:57:02.252Z,74.19
2023-02-22T16:59:32.779Z,74.46
2023-02-22T17:01:59.184Z,74.07
2023-02-22T17:04:28.604Z,74.03
2023-02-22T17:06:55.400Z,74.83
2023-02-22T17:09:22.094Z,74.98
2023-02-22T17:11:51.607Z,75.47
2023-02-22T17:14:23.055Z,75.71
2023-02-22T17:16:52.225Z,75.67
2023-02-22T17:19:22.574Z,75.94
2023-02-22T17:21:50.051Z,76.60
2023-02-22T17:24:19.998Z,77.63
2023-02-22T17:26:46.473Z,77.64
2023-02-22T17:29:13.666Z,78.29
2023-02-22T17:31:40.485Z,78.65
2023-02-22T17:34:07.354Z,79.16
2023-02-22T17:36:36.280Z,79.84
2023-02-22T17:39:03.853Z,79.78
2023-02-22T17:41:31.138Z,79.87
2023-02-22T17:43:58.156Z,80.30
2023-02-22T17:46:25.429Z,80.84
2023-02-22T17:48:53.970Z,81.62
2023-02-22T17:51:22.573Z,82.13
2023-02-22T17:53:48.989Z,82.20
2023-02-22T17:56:20.536Z,82.54
2023-02-22T17:58:49.705Z,83.30
2023-02-22T18:01:28.057Z,83.43
2023-02-22T18:03:56.212Z,83.45
2023-02-22T18:06:27.070Z,83.97
2023-02-22T18:08:56.599Z,84.79
2023-02-22T18:11:26.170Z,84.53
2023-02-22T18:13:57.205Z,84.91
2023-02-22T18:16:28.297Z,85.28
2023-02-22T18:18:56.036Z,86.57
2023-02-22T18:21:23.444Z,87.06
2023-02-22T18:23:49.908Z,87.54
2023-02-22T18:26:18.734Z,87.56
2023-02-22T18:28:48.435Z,88.78
2023-02-22T18:31:19.316Z,88.51
2023-02-22T18:33:47.820Z,88.61
2023-02-22T18:36:22.461Z,89.35
2023-02-22T18:38:50.804Z,89.47
2023-02-22T18:41:19.151Z,90.35
2023-02-22T18:43:50.768Z,90.95
2023-02-22T18:46:20.155Z,90.80
2023-02-22T18:48:48.447Z,91.12
2023-02-22T18:51:17.393Z,91.27
2023-02-22T18:53:47.070Z,91.54
2023-02-22T18:56:16.864Z,91.78
2023-02-22T18:58:43.642Z,92.10
2023-02-22T19:01:16.858Z,92.45
2023-02-22T19:03:44.142Z,92.94
2023-02-22T19:06:10.592Z,93.67
2023-02-22T19:08:42.239Z,94.35
2023-02-22T19:11:11.756Z,94.22
2023-02-22T19:13:38.567Z,94.53
2023-02-22T19:16:07.126Z,94.94
2023-02-22T19:18:33.908Z,95.63
2023-02-22T19:21:02.918Z,96.06
2023-02-22T19:23:34.232Z,96.39
2023-02-22T19:26:02.415Z,96.59
2023-02-22T19:28:33.814Z,96.49
2023-02-22T19:31:14.521Z,96.67
2023-02-22T19:33:41.559Z,96.72
2023-02-22T19:36:09.744Z,97.08
2023-02-22T19:38:36.669Z,97.18
2023-02-22T19:41:18.205Z,97.22
2023-02-22T19:43:53.174Z,97.36
2023-02-22T19:46:21.305Z,97.59
2023-02-22T19:48:48.858Z,97.95
2023-02-22T19:51:16.817Z,98.64
2023-02-22T19:53:44.201Z,98.43
2023-02-22T19:56:16.039Z,98.89
2023-02-22T19:58:45.227Z,99.43
2023-02-22T20:01:13.202Z,99.83
2023-02-22T20:03:41.907Z,99.91
2023-02-22T20:06:10.050Z,100.00
2023-02-22T20:08:41.780Z,100.00
2023-02-22T20:11:10.406Z,100.00
2023-02-22T20:13:38.633Z,100.00
2023-02-22T20:16:05.688Z,100.00
2023-02-22T20:18:32.243Z,100.00
2023-02-22T20:20:59.095Z,100.00
2023-02-22T20:23:25.605Z,100.00
2023-02-22T20:25:54.133Z,100.00
2023-02-22T20:28:21.681Z,100.00
2023-02-22T20:30:48.654Z,100.00
2023-02-22T20:33:15.491Z,100.00
2023-02-22T20:35:42.060Z,100.00
2023-02-22T20:38:08.487Z,100.00
2023-02-22T20:40:34.866Z,100.00
2023-02-22T20:43:01.234Z,100.00
2023-02-22T20:45:27.619Z,100.00
2023-02-22T20:47:54.963Z,100.00
2023-02-22T20:50:21.358Z,100.00
2023-02-22T20:52:47.722Z,100.00
2023-02-22T20:55:14.691Z,100.00
2023-02-22T20:57:41.074Z,100.00
2023-02-22T21:00:10.434Z,100.00
2023-02-22T21:02:38.439Z,100.00
2023-02-22T21:05:06.171Z,100.00
2023-02-22T21:07:33.144Z,100.00
2023-02-22T21:09:59.555Z,100.00
2023-02-22T21:12:25.971Z,100.00
2023-02-22T21:14:52.465Z,100.00
2023-02-22T21:17:26.916Z,100.00
2023-02-22T21:19:53.339Z,100.00
2023-02-22T21:22:19.713Z,100.00
2023-02-22T21:24:48.375Z,100.00
2023-02-22T21:27:16.103Z,100.00
2023-02-22T21:29:42.831Z,100.00
2023-02-22T21:32:10.266Z,100.00
2023-02-22T21:34:37.385Z,100.00
2023-02-22T21:37:07.877Z,100.00
2023-02-22T21:39:35.181Z,100.00
2023-02-22T21:42:01.679Z,100.00
2023-02-22T21:44:29.285Z,100.00
2023-02-22T21:46:56.286Z,100.00
2023-02-22T21:49:23.183Z,100.00
2023-02-22T21:51:51.482Z,100.00
2023-02-22T21:54:17.979Z,100.00
2023-02-22T21:56:44.580Z,100.00
2023-02-22T21:59:13.519Z,100.00
2023-02-22T22:01:46.657Z,100.00
2023-02-22T22:04:18.962Z,100.00
2023-02-22T22:06:50.793Z,100.00
2023-02-22T22:09:18.220Z,100.00
2023-02-22T22:11:50.455Z,100.00
2023-02-22T22:14:18.788Z,100.00
2023-02-22T22:16:46.933Z,100.00
2023-02-22T22:19:13.708Z,100.00
2023-02-22T22:21:41.114Z,100.00
2023-02-22T22:24:09.891Z,100.00
2023-02-22T22:26:37.410Z,100.00
2023-02-22T22:29:04.472Z,100.00
2023-02-22T22:31:31.810Z,100.00
2023-02-22T22:33:58.380Z,100.00
2023-02-22T22:36:27.259Z,100.00
2023-02-22T22:38:57.189Z,100.00
2023-02-22T22:41:27.825Z,100.00
2023-02-22T22:43:54.282Z,100.00
2023-02-22T22:46:22.136Z,100.00
2023-02-22T22:48:48.650Z,100.00
2023-02-22T22:51:20.012Z,100.00
2023-02-22T22:53:48.833Z,100.00
2023-02-22T22:56:19.138Z,100.00
2023-02-22T22:58:51.462Z,100.00
2023-02-22T23:01:26.613Z,100.00
2023-02-22T23:04:01.579Z,100.00
2023-02-22T23:06:40.588Z,100.00
2023-02-22T23:09:14.863Z,100.00
2023-02-22T23:11:46.675Z,100.00
2023-02-22T23:14:15.428Z,100.00
2023-02-22T23:16:42.593Z,100.00
2023-02-22T23:19:09.517Z,100.00
2023-02-22T23:21:36.594Z,100.00
2023-02-22T23:24:06.661Z,100.00
2023-02-22T23:26:33.969Z,100.00
2023-02-22T23:29:01.060Z,100.00
2023-02-22T23:31:31.954Z,100.00
2023-02-22T23:33:59.147Z,100.00
2023-02-22T23:36:26.544Z,100.00
2023-02-22T23:38:54.096Z,100.00
2023-02-22T23:41:20.925Z,100.00
2023-02-22T23:43:47.647Z,100.00
2023-02-22T23:46:18.355Z,100.00
2023-02-22T23:48:50.685Z,100.00
2023-02-22T23:51:20.431Z,100.00
2023-02-22T23:53:48.686Z,100.00
2023-02-22T23:56:20.782Z,100.00
2023-02-22T23:58:50.339Z,100.00
